Time;durP1;ratioP1;P1;durP2;ratioP2;P2;SDS_P1;SDS_P2;PMS_P1;PMS_P2;Temp;Humidity;BMP_temperature;BMP_pressure;BME280_temperature;BME280_humidity;BME280_pressure;Samples;Min_cycle;Max_cycle;Signal;HPM_P1;HPM_P2
2022/08/04 00:00:38;;;;;;;12.57;5.38;;;20.80;99.90;;;;;;5045795;28;20033;-70
2022/08/04 00:03:15;;;;;;;11.95;5.72;;;20.90;99.90;;;;;;5037900;28;20100;-70
2022/08/04 00:06:02;;;;;;;12.07;5.85;;;20.90;99.90;;;;;;5042685;28;20507;-70
2022/08/04 00:08:43;;;;;;;12.75;5.10;;;20.80;99.90;;;;;;5036502;28;20044;-70
2022/08/04 00:11:12;;;;;;;10.95;4.68;;;20.80;99.90;;;;;;5053559;28;20071;-70
2022/08/04 00:13:41;;;;;;;10.45;5.00;;;20.80;99.90;;;;;;5071914;28;20063;-70
2022/08/04 00:16:08;;;;;;;12.73;4.88;;;20.70;99.90;;;;;;5054838;28;20414;-70
2022/08/04 00:19:00;;;;;;;9.68;4.82;;;20.70;99.90;;;;;;5052701;28;20043;-70
2022/08/04 00:21:28;;;;;;;10.50;4.30;;;20.60;99.90;;;;;;5018605;28;20087;-71
2022/08/04 00:23:55;;;;;;;9.27;4.15;;;20.60;99.90;;;;;;5034713;28;20140;-70
2022/08/04 00:26:21;;;;;;;8.63;4.13;;;20.60;99.90;;;;;;5075042;28;20048;-70
2022/08/04 00:28:47;;;;;;;11.82;4.85;;;20.50;99.90;;;;;;5072107;28;20036;-70
2022/08/04 00:31:14;;;;;;;10.05;4.28;;;20.50;99.90;;;;;;5055097;28;20127;-70
2022/08/04 00:33:49;;;;;;;12.88;5.53;;;20.50;99.90;;;;;;5066027;28;20052;-71
2022/08/04 00:36:16;;;;;;;10.57;4.60;;;20.50;99.90;;;;;;5051021;28;20424;-70
2022/08/04 00:38:43;;;;;;;9.75;4.63;;;20.50;99.90;;;;;;5033932;28;20087;-70
2022/08/04 00:41:21;;;;;;;8.27;4.15;;;20.40;99.90;;;;;;5034878;28;20074;-70
2022/08/04 00:44:18;;;;;;;9.00;3.95;;;20.40;99.90;;;;;;5053933;28;20029;-70
2022/08/04 00:47:02;;;;;;;11.13;4.35;;;20.40;99.90;;;;;;5052100;28;20405;-71
2022/08/04 00:49:49;;;;;;;8.52;3.88;;;20.40;99.90;;;;;;5052401;28;20041;-70
2022/08/04 00:52:46;;;;;;;8.32;4.10;;;20.40;99.90;;;;;;5053830;28;20087;-70
2022/08/04 00:55:14;;;;;;;10.40;4.30;;;20.40;99.90;;;;;;5037695;28;20527;-70
2022/08/04 00:58:17;;;;;;;10.18;4.10;;;20.30;99.90;;;;;;5054671;28;20397;-70
2022/08/04 01:00:55;;;;;;;8.73;3.95;;;20.30;99.90;;;;;;5054320;28;20493;-70
2022/08/04 01:03:48;;;;;;;8.48;3.75;;;20.20;99.90;;;;;;5054269;28;20493;-71
2022/08/04 01:06:26;;;;;;;7.97;3.65;;;20.20;99.90;;;;;;5034396;28;20039;-70
2022/08/04 01:09:13;;;;;;;9.50;3.60;;;20.20;99.90;;;;;;5039528;28;20041;-71
2022/08/04 01:11:57;;;;;;;9.15;3.75;;;20.20;99.90;;;;;;5065800;28;20070;-70
2022/08/04 01:15:00;;;;;;;9.10;3.60;;;20.20;99.90;;;;;;5050877;28;20049;-70
2022/08/04 01:17:45;;;;;;;8.43;3.63;;;20.20;99.90;;;;;;5026147;28;20404;-70
2022/08/04 01:20:19;;;;;;;7.88;3.78;;;20.20;99.90;;;;;;5072708;28;20131;-70
2022/08/04 01:23:13;;;;;;;10.50;3.70;;;20.10;99.90;;;;;;5073951;28;20044;-70
2022/08/04 01:25:57;;;;;;;10.18;4.15;;;20.10;99.90;;;;;;5050246;28;20561;-71
2022/08/04 01:28:29;;;;;;;10.00;4.20;;;20.00;99.90;;;;;;5038999;28;20497;-71
2022/08/04 01:31:01;;;;;;;9.40;4.35;;;20.00;99.90;;;;;;5055380;28;20451;-70
2022/08/04 01:33:29;;;;;;;7.03;3.10;;;20.00;99.90;;;;;;5070419;28;20119;-70
2022/08/04 01:35:56;;;;;;;8.25;3.60;;;20.00;99.90;;;;;;5061794;28;20083;-70
2022/08/04 01:38:34;;;;;;;8.25;3.60;;;20.00;99.90;;;;;;5035909;28;20033;-70
2022/08/04 01:41:04;;;;;;;7.40;3.30;;;19.90;99.90;;;;;;5040130;28;20040;-70
2022/08/04 01:43:32;;;;;;;5.15;2.30;;;19.90;99.90;;;;;;5070340;28;20033;-70
2022/08/04 01:46:01;;;;;;;6.80;2.55;;;19.80;99.90;;;;;;5073139;28;20038;-70
2022/08/04 01:48:27;;;;;;;6.28;2.45;;;19.80;99.90;;;;;;5043432;28;20033;-70
2022/08/04 01:50:56;;;;;;;7.18;2.90;;;19.70;99.90;;;;;;5044906;28;20501;-71
2022/08/04 01:53:28;;;;;;;5.35;2.55;;;19.80;99.90;;;;;;5059151;28;20485;-71
2022/08/04 01:55:55;;;;;;;6.47;3.00;;;19.70;99.90;;;;;;5048188;28;20501;-70
2022/08/04 01:58:23;;;;;;;7.00;2.63;;;19.60;99.90;;;;;;5051481;28;20135;-70
2022/08/04 02:01:03;;;;;;;8.10;2.95;;;19.60;99.90;;;;;;5056553;28;20124;-70
2022/08/04 02:03:30;;;;;;;6.43;3.20;;;19.50;99.90;;;;;;5056547;28;20040;-69
2022/08/04 02:06:11;;;;;;;7.13;3.10;;;19.50;99.90;;;;;;5054907;28;20044;-70
2022/08/04 02:09:05;;;;;;;10.52;3.63;;;19.50;99.90;;;;;;5053837;28;20033;-70
2022/08/04 02:11:31;;;;;;;8.68;3.45;;;19.50;99.90;;;;;;5033127;28;20049;-70
2022/08/04 02:14:44;;;;;;;7.55;3.30;;;19.50;99.90;;;;;;5034416;28;20409;-70
2022/08/04 02:17:10;;;;;;;9.60;3.22;;;19.50;99.90;;;;;;5072943;28;20045;-70
2022/08/04 02:19:51;;;;;;;7.65;3.75;;;19.50;99.90;;;;;;5070063;28;20044;-71
2022/08/04 02:22:20;;;;;;;7.85;3.25;;;19.40;99.90;;;;;;5055228;28;20138;-70
2022/08/04 02:24:52;;;;;;;8.20;3.47;;;19.40;99.90;;;;;;5069212;28;20088;-70
2022/08/04 02:27:28;;;;;;;10.27;3.83;;;19.30;99.90;;;;;;5056160;28;20044;-70
2022/08/04 02:29:58;;;;;;;7.90;4.00;;;19.30;99.90;;;;;;5054700;28;20041;-69
2022/08/04 02:32:32;;;;;;;9.82;3.42;;;19.20;99.90;;;;;;5073051;28;20044;-70
2022/08/04 02:35:06;;;;;;;8.18;4.55;;;19.20;99.90;;;;;;5033480;28;20401;-69
2022/08/04 02:37:33;;;;;;;7.68;3.38;;;19.10;99.90;;;;;;5048335;28;20053;-70
2022/08/04 02:40:02;;;;;;;10.45;3.72;;;19.10;99.90;;;;;;5059257;28;20051;-70
2022/08/04 02:42:28;;;;;;;7.65;3.40;;;19.10;99.90;;;;;;5018516;28;20044;-70
2022/08/04 02:44:57;;;;;;;8.57;3.70;;;19.10;99.90;;;;;;5056485;28;20040;-70
2022/08/04 02:47:24;;;;;;;7.28;3.65;;;19.10;99.90;;;;;;5053826;28;20392;-70
2022/08/04 02:49:51;;;;;;;7.35;3.50;;;19.10;99.90;;;;;;5072591;28;20056;-69
2022/08/04 02:52:22;;;;;;;7.22;3.60;;;19.10;99.90;;;;;;5072567;28;20037;-70
2022/08/04 02:54:52;;;;;;;6.07;2.90;;;19.10;99.90;;;;;;5039687;28;20120;-70
2022/08/04 02:57:20;;;;;;;6.63;2.60;;;19.00;99.90;;;;;;5042417;28;20218;-70
2022/08/04 02:59:45;;;;;;;4.30;1.90;;;19.00;99.90;;;;;;5064024;28;20404;-70
2022/08/04 03:02:11;;;;;;;3.78;1.70;;;19.10;99.90;;;;;;5051950;28;20039;-70
2022/08/04 03:05:25;;;;;;;5.13;2.40;;;19.10;99.90;;;;;;5052748;28;20048;-69
2022/08/04 03:07:58;;;;;;;4.60;2.25;;;19.10;99.90;;;;;;5039891;28;20049;-69
2022/08/04 03:10:54;;;;;;;8.70;3.10;;;19.00;99.90;;;;;;5075312;28;20063;-70
2022/08/04 03:13:52;;;;;;;6.43;2.88;;;19.00;99.90;;;;;;5045422;28;20053;-70
2022/08/04 03:16:33;;;;;;;7.35;2.97;;;18.90;99.90;;;;;;5029264;28;20042;-70
2022/08/04 03:19:22;;;;;;;9.25;3.28;;;19.00;99.90;;;;;;5034696;28;20054;-70
2022/08/04 03:22:24;;;;;;;7.45;3.50;;;18.90;99.90;;;;;;5071907;28;20127;-70
2022/08/04 03:25:05;;;;;;;;;;;18.90;99.90;;;;;;5070331;28;20041;-70
2022/08/04 03:27:51;;;;;;;9.20;3.55;;;18.90;99.90;;;;;;5071962;28;19962;-69
2022/08/04 03:30:52;;;;;;;7.97;3.72;;;18.90;99.90;;;;;;5070605;28;20036;-70
2022/08/04 03:33:26;;;;;;;8.93;4.30;;;18.80;99.90;;;;;;5026285;28;20083;-70
2022/08/04 03:36:19;;;;;;;8.32;3.83;;;18.80;99.90;;;;;;5055120;28;20044;-69
2022/08/04 03:39:13;;;;;;;11.30;4.85;;;18.80;99.90;;;;;;5054720;28;20470;-69
2022/08/04 03:41:54;;;;;;;8.93;4.97;;;18.80;99.90;;;;;;5070148;28;20040;-70
2022/08/04 03:44:19;;;;;;;11.63;5.20;;;18.80;99.90;;;;;;5052048;28;20119;-70
2022/08/04 03:47:16;;;;;;;13.90;5.43;;;18.70;99.90;;;;;;5071683;28;20132;-70
2022/08/04 03:50:03;;;;;;;11.50;5.07;;;18.70;99.90;;;;;;5070273;28;20048;-70
2022/08/04 03:55:45;;;;;;;7.10;3.28;;;18.70;99.90;;;;;;5032138;28;20045;-70
2022/08/04 03:58:42;;;;;;;8.27;3.42;;;18.70;99.90;;;;;;5032003;28;20049;-70
2022/08/04 04:01:32;;;;;;;11.75;4.88;;;18.70;99.90;;;;;;5049411;28;20103;-70
2022/08/04 04:04:00;;;;;;;6.28;2.50;;;18.70;99.90;;;;;;5061329;28;20119;-70
2022/08/04 04:06:40;;;;;;;4.97;2.10;;;18.70;99.90;;;;;;5071552;28;20047;-70
2022/08/04 04:09:11;;;;;;;6.75;2.63;;;18.70;99.90;;;;;;5053461;28;20045;-70
2022/08/04 04:12:10;;;;;;;10.25;4.72;;;18.70;99.90;;;;;;5054823;28;20040;-69
2022/08/04 04:14:46;;;;;;;10.52;4.45;;;18.70;99.90;;;;;;5069352;28;20067;-70
2022/08/04 04:17:33;;;;;;;10.40;5.18;;;18.70;99.90;;;;;;5025690;28;20410;-70
2022/08/04 04:20:48;;;;;;;9.95;5.10;;;18.60;99.90;;;;;;5067048;28;20044;-70
2022/08/04 04:23:56;;;;;;;8.85;4.90;;;18.60;99.90;;;;;;5053339;28;20036;-70
2022/08/04 04:26:45;;;;;;;10.15;5.22;;;18.50;99.90;;;;;;5054868;28;20032;-70
2022/08/04 04:29:11;;;;;;;10.02;5.43;;;18.50;99.90;;;;;;5053251;28;20037;-70
2022/08/04 04:31:56;;;;;;;9.18;4.70;;;18.60;99.90;;;;;;5053175;28;20036;-70
2022/08/04 04:34:48;;;;;;;8.52;5.07;;;18.60;99.90;;;;;;5069153;28;20044;-70
2022/08/04 04:37:45;;;;;;;10.45;5.45;;;18.60;99.90;;;;;;5071430;28;20041;-70
2022/08/04 04:40:29;;;;;;;10.85;5.72;;;18.70;99.90;;;;;;5051734;28;20048;-70
2022/08/04 04:43:41;;;;;;;6.75;3.03;;;18.70;99.90;;;;;;5052840;28;20040;-70
2022/08/04 04:46:12;;;;;;;5.72;2.97;;;18.70;99.90;;;;;;5042291;28;20498;-70
2022/08/04 04:48:49;;;;;;;7.57;2.67;;;18.80;99.90;;;;;;5017395;28;20041;-70
2022/08/04 04:51:24;;;;;;;6.53;3.03;;;18.80;99.90;;;;;;5034737;28;20042;-70
2022/08/04 04:54:03;;;;;;;8.00;3.60;;;18.80;99.90;;;;;;5039318;28;20132;-70
2022/08/04 04:56:40;;;;;;;7.55;3.40;;;18.80;99.90;;;;;;5057918;28;20054;-70
2022/08/04 04:59:11;;;;;;;8.00;3.80;;;18.70;99.90;;;;;;5056268;28;20141;-70
2022/08/04 05:01:40;;;;;;;8.68;3.50;;;18.70;99.90;;;;;;5048533;28;20424;-70
2022/08/04 05:04:21;;;;;;;8.32;3.90;;;18.70;99.90;;;;;;5069523;28;20492;-70
2022/08/04 05:07:08;;;;;;;8.93;4.22;;;18.70;99.90;;;;;;5039658;28;20037;-70
2022/08/04 05:09:54;;;;;;;7.65;3.83;;;18.70;99.90;;;;;;5038819;28;20379;-70
2022/08/04 05:12:31;;;;;;;8.38;4.07;;;18.80;99.90;;;;;;5008769;28;20183;-70
2022/08/04 05:14:59;;;;;;;11.45;5.22;;;18.80;99.90;;;;;;5019274;28;20453;-70
2022/08/04 05:17:35;;;;;;;12.80;4.63;;;18.80;99.90;;;;;;5018520;28;20037;-70
2022/08/04 05:20:13;;;;;;;8.48;5.00;;;18.90;99.90;;;;;;5041059;28;20501;-70
2022/08/04 05:22:51;;;;;;;11.43;5.65;;;18.90;99.90;;;;;;5036492;28;20033;-70
2022/08/04 05:25:34;;;;;;;9.93;4.82;;;18.90;99.90;;;;;;5050295;28;20038;-70
2022/08/04 05:28:08;;;;;;;10.43;5.20;;;18.90;99.90;;;;;;5051104;28;20036;-70
2022/08/04 05:30:47;;;;;;;9.05;5.00;;;19.00;99.90;;;;;;5051362;28;20494;-70
2022/08/04 05:33:30;;;;;;;9.45;5.20;;;19.00;99.90;;;;;;5042889;28;20036;-70
2022/08/04 05:35:59;;;;;;;8.95;5.32;;;19.10;99.90;;;;;;5031982;28;20132;-70
2022/08/04 05:38:34;;;;;;;12.68;6.63;;;19.10;99.90;;;;;;5033805;28;20079;-70
2022/08/04 05:41:01;;;;;;;11.30;6.22;;;19.20;99.90;;;;;;5031845;28;20418;-71
2022/08/04 05:43:27;;;;;;;12.40;6.55;;;19.30;99.90;;;;;;5039805;28;20123;-70
2022/08/04 05:45:56;;;;;;;10.90;7.10;;;19.30;99.90;;;;;;5047263;28;20132;-70
2022/08/04 05:48:23;;;;;;;12.25;7.35;;;19.30;99.90;;;;;;5039750;28;20037;-70
2022/08/04 05:50:49;;;;;;;12.02;7.60;;;19.40;99.90;;;;;;5049872;28;20047;-70
2022/08/04 05:53:16;;;;;;;11.77;7.40;;;19.50;99.90;;;;;;5051898;28;20059;-70
2022/08/04 05:55:43;;;;;;;12.73;7.78;;;19.60;99.90;;;;;;5069791;28;20138;-70
2022/08/04 05:58:09;;;;;;;15.77;8.25;;;19.60;99.90;;;;;;5054003;28;20047;-70
2022/08/04 06:00:37;;;;;;;17.23;7.78;;;19.60;99.90;;;;;;5056387;28;20083;-70
2022/08/04 06:03:04;;;;;;;14.48;8.30;;;19.80;99.90;;;;;;5036702;28;20052;-71
2022/08/04 06:05:30;;;;;;;14.57;8.68;;;19.90;99.90;;;;;;5040997;28;20092;-70
2022/08/04 06:07:56;;;;;;;13.30;7.43;;;20.00;99.90;;;;;;5067906;28;20044;-71
2022/08/04 06:10:24;;;;;;;14.15;7.68;;;20.10;99.90;;;;;;5065300;28;20538;-70
2022/08/04 06:12:58;;;;;;;15.27;7.95;;;20.20;99.90;;;;;;5052931;28;20049;-70
2022/08/04 06:15:26;;;;;;;11.85;7.28;;;20.30;99.90;;;;;;5051946;28;20068;-70
2022/08/04 06:18:01;;;;;;;15.20;7.72;;;20.40;99.90;;;;;;5052237;28;20049;-71
2022/08/04 06:20:31;;;;;;;15.30;7.25;;;20.60;99.90;;;;;;5029308;28;20045;-70
2022/08/04 06:23:04;;;;;;;15.57;7.63;;;20.80;99.90;;;;;;5024939;28;20037;-70
2022/08/04 06:25:33;;;;;;;12.90;7.70;;;20.90;99.90;;;;;;5032871;28;20037;-71
2022/08/04 06:28:04;;;;;;;12.20;7.00;;;21.00;99.90;;;;;;5034180;28;20092;-70
2022/08/04 06:30:31;;;;;;;11.40;7.47;;;21.10;99.90;;;;;;5032819;28;20120;-71
2022/08/04 06:33:00;;;;;;;13.35;7.05;;;21.30;99.90;;;;;;5050779;28;20033;-71
2022/08/04 06:35:27;;;;;;;11.00;6.72;;;21.40;99.90;;;;;;5052865;28;20072;-70
2022/08/04 06:37:55;;;;;;;12.43;6.57;;;21.40;99.90;;;;;;5064873;28;20072;-70
2022/08/04 06:40:23;;;;;;;12.35;6.70;;;21.50;99.90;;;;;;5071772;28;20090;-70
2022/08/04 06:42:49;;;;;;;16.75;6.78;;;21.70;99.90;;;;;;5055665;28;20083;-70
2022/08/04 06:45:15;;;;;;;10.75;5.97;;;21.80;99.90;;;;;;5034342;28;20128;-70
2022/08/04 06:47:43;;;;;;;12.07;5.22;;;21.80;99.90;;;;;;5052432;28;20044;-70
2022/08/04 06:50:10;;;;;;;12.50;6.15;;;22.00;99.90;;;;;;5063176;28;20041;-71
2022/08/04 06:52:36;;;;;;;9.63;5.93;;;22.00;99.90;;;;;;5050420;28;20033;-70
2022/08/04 06:55:02;;;;;;;13.10;5.60;;;22.10;99.90;;;;;;5019422;28;20451;-71
2022/08/04 06:57:29;;;;;;;11.82;5.65;;;22.10;99.90;;;;;;5052786;28;20036;-71
2022/08/04 07:00:04;;;;;;;13.63;5.40;;;22.30;99.90;;;;;;5033917;28;20041;-71
2022/08/04 07:02:37;;;;;;;11.43;5.65;;;22.30;99.90;;;;;;5052290;28;20045;-71
2022/08/04 07:05:05;;;;;;;12.52;5.57;;;22.30;99.90;;;;;;5053710;28;20115;-71
2022/08/04 07:07:31;;;;;;;9.27;4.38;;;22.40;99.90;;;;;;5051127;28;20041;-71
2022/08/04 07:09:56;;;;;;;10.98;4.97;;;22.50;99.90;;;;;;5067839;28;20047;-70
2022/08/04 07:12:23;;;;;;;10.00;5.18;;;22.60;99.90;;;;;;5049904;28;20115;-70
2022/08/04 07:14:50;;;;;;;10.88;4.85;;;22.60;99.90;;;;;;5051402;28;20116;-70
2022/08/04 07:17:17;;;;;;;13.07;5.13;;;22.70;99.90;;;;;;5051880;28;20041;-71
2022/08/04 07:19:46;;;;;;;15.05;5.53;;;22.80;99.90;;;;;;5060883;28;20041;-71
2022/08/04 07:22:12;;;;;;;10.02;4.63;;;22.90;99.90;;;;;;5055250;28;20028;-70
2022/08/04 07:24:40;;;;;;;10.35;4.22;;;22.90;99.90;;;;;;5059684;28;20504;-71
2022/08/04 07:27:06;;;;;;;12.10;4.13;;;23.10;99.90;;;;;;5050101;28;20040;-71
2022/08/04 07:29:35;;;;;;;10.43;4.13;;;23.20;99.90;;;;;;5062868;28;20037;-71
2022/08/04 07:32:03;;;;;;;10.70;4.28;;;23.30;99.90;;;;;;5050890;28;20041;-71
2022/08/04 07:34:30;;;;;;;12.90;4.50;;;23.40;99.90;;;;;;5072069;28;20040;-70
2022/08/04 07:36:58;;;;;;;11.18;4.00;;;23.40;99.90;;;;;;5054730;28;21444;-71
2022/08/04 07:39:27;;;;;;;10.85;4.35;;;23.50;99.90;;;;;;5055010;28;20055;-71
2022/08/04 07:41:54;;;;;;;9.65;4.15;;;23.60;99.90;;;;;;5062175;28;20567;-71
2022/08/04 07:44:20;;;;;;;11.95;4.38;;;23.60;99.90;;;;;;5047795;28;20041;-71
2022/08/04 07:46:46;;;;;;;11.02;4.75;;;23.70;99.90;;;;;;5063502;28;20036;-71
2022/08/04 07:49:12;;;;;;;10.50;4.18;;;23.80;99.90;;;;;;5070307;28;20048;-71
2022/08/04 07:51:38;;;;;;;12.10;4.25;;;23.90;99.90;;;;;;5079778;28;20040;-70
2022/08/04 07:54:08;;;;;;;10.45;3.80;;;24.00;99.90;;;;;;5027682;28;20048;-71
2022/08/04 07:56:38;;;;;;;8.63;3.67;;;24.10;99.90;;;;;;5049302;28;20055;-70
2022/08/04 07:59:05;;;;;;;12.02;3.80;;;24.10;99.90;;;;;;5056874;28;20111;-71
2022/08/04 08:01:31;;;;;;;14.00;4.18;;;24.30;99.90;;;;;;5071512;28;20378;-71
2022/08/04 08:03:59;;;;;;;10.95;3.88;;;24.40;99.90;;;;;;5037588;28;20076;-71
2022/08/04 08:06:28;;;;;;;10.98;3.65;;;24.40;99.90;;;;;;5045286;28;20443;-71
2022/08/04 08:08:54;;;;;;;9.70;3.13;;;24.40;99.90;;;;;;5036443;28;20080;-71
2022/08/04 08:11:20;;;;;;;9.88;3.70;;;24.50;99.90;;;;;;5037553;28;20041;-71
2022/08/04 08:13:46;;;;;;;9.60;3.35;;;24.50;99.90;;;;;;5032249;28;20088;-70
2022/08/04 08:16:13;;;;;;;13.02;3.72;;;24.50;99.90;;;;;;5058291;28;20075;-70
2022/08/04 08:18:38;;;;;;;12.55;3.45;;;24.60;99.90;;;;;;5070500;28;20550;-71
2022/08/04 08:21:04;;;;;;;10.43;3.28;;;24.70;99.90;;;;;;5054272;28;20048;-72
2022/08/04 08:23:33;;;;;;;10.77;3.35;;;24.70;99.90;;;;;;5087086;28;20040;-73
2022/08/04 08:25:58;;;;;;;9.75;3.00;;;24.80;99.90;;;;;;5053719;28;20089;-71
2022/08/04 08:28:25;;;;;;;11.77;3.08;;;24.80;99.90;;;;;;5049422;28;20119;-71
2022/08/04 08:30:50;;;;;;;10.93;3.75;;;24.90;99.90;;;;;;5051408;28;20500;-71
2022/08/04 08:33:17;;;;;;;9.38;3.10;;;24.90;99.90;;;;;;5052953;28;20050;-71
2022/08/04 08:36:04;;;;;;;8.13;3.15;;;24.90;99.90;;;;;;5054606;28;20039;-71
2022/08/04 08:39:02;;;;;;;10.05;3.42;;;25.00;99.90;;;;;;5061093;28;20134;-71
2022/08/04 08:42:02;;;;;;;9.05;3.08;;;25.10;99.90;;;;;;5050382;28;20040;-71
2022/08/04 08:45:09;;;;;;;9.30;3.33;;;25.20;99.90;;;;;;5018298;28;20033;-71
2022/08/04 08:47:45;;;;;;;11.07;3.20;;;25.30;99.90;;;;;;5037247;28;20037;-71
2022/08/04 08:50:30;;;;;;;11.18;3.22;;;25.30;99.90;;;;;;5046789;28;20119;-71
2022/08/04 08:53:10;;;;;;;10.05;3.05;;;25.40;99.90;;;;;;5057020;28;20469;-71
2022/08/04 08:55:52;;;;;;;13.55;3.30;;;25.50;99.90;;;;;;5061592;28;20041;-71
2022/08/04 08:58:32;;;;;;;10.65;3.13;;;25.60;99.90;;;;;;5025599;28;20091;-71
2022/08/04 09:01:22;;;;;;;8.15;2.83;;;25.70;99.90;;;;;;5053855;28;20614;-71
2022/08/04 09:04:09;;;;;;;9.27;3.30;;;25.70;99.90;;;;;;5052525;28;20508;-71
2022/08/04 09:06:49;;;;;;;9.00;3.28;;;25.90;99.90;;;;;;5046141;28;20086;-71
2022/08/04 09:09:39;;;;;;;9.40;3.40;;;26.00;99.90;;;;;;5027977;28;20417;-71
2022/08/04 09:12:28;;;;;;;8.95;3.58;;;26.10;99.90;;;;;;5038185;28;20128;-71
2022/08/04 09:15:10;;;;;;;8.40;3.20;;;26.10;99.90;;;;;;5058290;28;20496;-71
2022/08/04 09:17:50;;;;;;;10.90;3.42;;;26.10;99.90;;;;;;5066657;28;20504;-71
2022/08/04 09:20:48;;;;;;;8.65;2.83;;;26.20;99.90;;;;;;5044636;28;20049;-71
2022/08/04 09:23:27;;;;;;;10.32;3.55;;;26.20;99.90;;;;;;5047684;28;20106;-71
2022/08/04 09:26:01;;;;;;;6.70;2.80;;;26.30;99.90;;;;;;5045781;28;20041;-71
2022/08/04 09:28:34;;;;;;;8.65;3.60;;;26.30;99.90;;;;;;5044891;28;20128;-71
2022/08/04 09:31:09;;;;;;;10.07;4.03;;;26.40;99.90;;;;;;5054244;28;20037;-71
2022/08/04 09:33:46;;;;;;;8.10;3.55;;;26.50;99.90;;;;;;5050661;28;20040;-71
2022/08/04 09:36:31;;;;;;;9.18;4.40;;;26.50;99.90;;;;;;5051209;28;20037;-71
2022/08/04 09:39:20;;;;;;;10.07;4.95;;;26.60;99.90;;;;;;5049194;28;20040;-71
2022/08/04 09:42:00;;;;;;;11.82;4.40;;;26.60;99.90;;;;;;5035668;28;20370;-71
2022/08/04 09:44:54;;;;;;;9.40;4.40;;;26.60;99.90;;;;;;5039314;28;20039;-71
2022/08/04 09:47:38;;;;;;;9.45;4.38;;;26.70;99.90;;;;;;5032980;28;20115;-71
2022/08/04 09:50:16;;;;;;;11.85;4.50;;;26.70;99.90;;;;;;5046393;28;20071;-71
2022/08/04 09:52:59;;;;;;;11.98;4.55;;;26.70;99.90;;;;;;5038323;28;20401;-71
2022/08/04 09:55:51;;;;;;;11.75;4.60;;;26.80;99.90;;;;;;5039299;28;20056;-71
2022/08/04 09:58:49;;;;;;;8.18;4.00;;;26.70;99.90;;;;;;5041392;28;20112;-71
2022/08/04 10:01:21;;;;;;;11.27;4.15;;;26.80;99.90;;;;;;5048823;28;20516;-71
2022/08/04 10:03:55;;;;;;;9.73;4.30;;;26.90;99.90;;;;;;5044867;28;20037;-71
2022/08/04 10:06:53;;;;;;;8.45;4.60;;;26.90;99.90;;;;;;5035759;28;20036;-71
2022/08/04 10:09:39;;;;;;;10.52;4.75;;;27.00;99.90;;;;;;5031010;28;20502;-71
2022/08/04 10:12:30;;;;;;;9.25;4.40;;;27.10;99.90;;;;;;5032832;28;20128;-71
2022/08/04 10:15:29;;;;;;;9.63;4.18;;;27.10;99.90;;;;;;5066934;28;20416;-71
2022/08/04 10:18:06;;;;;;;11.05;4.30;;;27.10;99.90;;;;;;5050742;28;20049;-71
2022/08/04 10:20:56;;;;;;;9.38;3.88;;;27.10;99.90;;;;;;5075764;28;20036;-71
2022/08/04 10:23:37;;;;;;;10.25;4.30;;;27.00;99.90;;;;;;5065930;28;20392;-71
2022/08/04 10:26:17;;;;;;;10.50;4.03;;;27.00;99.90;;;;;;5043761;28;20075;-71
2022/08/04 10:28:54;;;;;;;6.78;3.83;;;26.90;99.90;;;;;;5064428;28;20044;-71
2022/08/04 10:31:25;;;;;;;9.75;3.92;;;26.90;99.90;;;;;;5035748;28;20124;-71
2022/08/04 10:33:59;;;;;;;9.05;3.67;;;26.90;99.90;;;;;;5037437;28;20462;-71
2022/08/04 10:36:30;;;;;;;8.32;3.28;;;27.00;99.90;;;;;;5035601;28;20041;-71
2022/08/04 10:39:11;;;;;;;8.68;3.38;;;26.90;99.90;;;;;;5067086;28;20044;-71
2022/08/04 10:41:45;;;;;;;9.27;3.30;;;26.90;99.90;;;;;;5051973;28;20041;-71
2022/08/04 10:44:23;;;;;;;8.05;3.38;;;26.80;99.90;;;;;;5027300;28;20038;-71
2022/08/04 10:47:03;;;;;;;6.97;2.55;;;26.80;99.90;;;;;;5059870;28;20063;-71
2022/08/04 10:49:44;;;;;;;8.00;2.60;;;26.60;99.90;;;;;;5065213;28;20041;-71
2022/08/04 10:52:42;;;;;;;8.98;2.28;;;26.50;99.90;;;;;;5042040;28;20045;-71
2022/08/04 10:55:39;;;;;;;8.65;2.20;;;26.40;99.90;;;;;;5064567;28;20051;-71
2022/08/04 10:58:09;;;;;;;6.95;2.10;;;26.40;99.90;;;;;;5066723;28;20137;-71
2022/08/04 11:00:40;;;;;;;7.22;2.75;;;26.40;99.90;;;;;;5033321;28;20043;-71
2022/08/04 11:03:20;;;;;;;7.10;2.13;;;26.50;99.90;;;;;;5035307;28;20045;-71
2022/08/04 11:06:03;;;;;;;6.53;2.22;;;26.50;99.90;;;;;;5068369;28;20294;-71
2022/08/04 11:08:40;;;;;;;8.20;2.28;;;26.50;99.90;;;;;;5066847;28;20044;-71
2022/08/04 11:11:31;;;;;;;7.05;1.90;;;26.30;99.90;;;;;;5055265;28;20041;-72
2022/08/04 11:14:13;;;;;;;7.70;2.00;;;26.30;99.90;;;;;;5066677;28;20056;-71
2022/08/04 11:16:42;;;;;;;9.27;2.03;;;26.20;99.90;;;;;;5041587;28;20591;-71
2022/08/04 11:19:17;;;;;;;10.23;2.00;;;26.10;99.90;;;;;;5060185;28;20048;-71
2022/08/04 11:22:07;;;;;;;7.95;2.17;;;26.20;99.90;;;;;;5057663;28;20075;-71
2022/08/04 11:25:21;;;;;;;8.95;2.10;;;26.20;99.90;;;;;;5015774;28;20045;-71
2022/08/04 11:28:01;;;;;;;7.68;2.05;;;26.20;99.90;;;;;;5048996;28;20452;-71
2022/08/04 11:30:51;;;;;;;7.63;2.17;;;26.20;99.90;;;;;;5051702;28;20436;-71
2022/08/04 11:33:28;;;;;;;7.95;2.25;;;26.20;99.90;;;;;;5035270;28;20049;-71
2022/08/04 11:36:03;;;;;;;6.80;2.10;;;26.10;99.90;;;;;;5024767;28;20509;-71
2022/08/04 11:38:57;;;;;;;9.20;2.17;;;26.10;99.90;;;;;;5049336;28;20156;-71
2022/08/04 11:42:07;;;;;;;7.60;2.40;;;26.00;99.90;;;;;;5047725;28;20124;-71
2022/08/04 11:45:00;;;;;;;7.85;2.25;;;26.00;99.90;;;;;;5001377;28;20038;-71
2022/08/04 11:47:38;;;;;;;8.98;2.42;;;26.10;99.90;;;;;;5037376;28;20032;-71
2022/08/04 11:50:08;;;;;;;8.82;2.80;;;26.10;99.90;;;;;;5069390;28;20044;-71
2022/08/04 11:52:38;;;;;;;5.43;2.50;;;26.00;99.90;;;;;;5040519;28;20067;-71
2022/08/04 11:55:08;;;;;;;8.93;2.50;;;26.00;99.90;;;;;;5056318;28;20094;-71
2022/08/04 11:57:34;;;;;;;8.55;2.70;;;26.00;99.90;;;;;;5060310;28;20037;-71
2022/08/04 12:00:03;;;;;;;9.52;2.50;;;26.00;99.90;;;;;;5054774;28;20047;-71
2022/08/04 12:02:49;;;;;;;7.85;2.35;;;26.00;99.90;;;;;;5052974;28;20118;-71
2022/08/04 12:05:18;;;;;;;8.32;2.20;;;26.00;99.90;;;;;;5038591;28;20033;-71
2022/08/04 12:07:57;;;;;;;4.00;1.80;;;26.00;99.90;;;;;;5060039;28;20064;-71
2022/08/04 12:10:41;;;;;;;6.38;1.80;;;26.00;99.90;;;;;;5070257;28;21270;-71
2022/08/04 12:13:43;;;;;;;6.68;2.50;;;25.90;99.90;;;;;;5062464;28;20059;-71
2022/08/04 12:16:13;;;;;;;;;;;25.80;99.90;;;;;;5039761;28;20053;-71
2022/08/04 12:18:49;;;;;;;5.20;2.10;;;25.70;99.90;;;;;;5079388;28;19962;-71
2022/08/04 12:21:48;;;;;;;4.78;1.92;;;25.60;99.90;;;;;;5062130;28;20068;-71
2022/08/04 12:24:20;;;;;;;4.35;1.85;;;25.60;99.90;;;;;;5065889;28;20040;-71
2022/08/04 12:26:55;;;;;;;4.68;1.70;;;25.60;99.90;;;;;;5075188;28;20119;-71
2022/08/04 12:29:24;;;;;;;2.65;1.50;;;25.40;99.90;;;;;;5047690;28;20048;-71
2022/08/04 12:31:55;;;;;;;3.65;1.88;;;25.30;99.90;;;;;;5044053;28;20052;-70
2022/08/04 12:34:32;;;;;;;2.80;1.40;;;25.30;99.90;;;;;;5035716;28;20099;-70
2022/08/04 12:37:03;;;;;;;3.95;1.73;;;25.20;99.90;;;;;;5058448;28;20043;-71
2022/08/04 12:39:30;;;;;;;;;;;25.00;99.90;;;;;;5028402;28;20122;-71
2022/08/04 12:42:14;;;;;;;4.63;1.75;;;25.00;99.90;;;;;;5037409;28;20438;-71
2022/08/04 12:44:41;;;;;;;6.55;2.20;;;24.90;99.90;;;;;;5063701;28;20044;-71
2022/08/04 12:47:13;;;;;;;9.27;2.42;;;24.80;99.90;;;;;;5038597;28;20041;-71
2022/08/04 12:49:42;;;;;;;24.48;3.88;;;24.80;99.90;;;;;;5044185;28;20044;-71
2022/08/04 12:52:10;;;;;;;31.48;3.67;;;24.70;99.90;;;;;;5055831;28;20040;-72
2022/08/04 12:54:37;;;;;;;26.85;3.60;;;24.60;99.90;;;;;;5063777;28;20047;-72
2022/08/04 12:57:06;;;;;;;10.10;3.00;;;24.50;99.90;;;;;;5060232;28;20056;-72
2022/08/04 12:59:39;;;;;;;7.57;2.10;;;24.40;99.90;;;;;;5060403;28;20176;-72
2022/08/04 13:02:11;;;;;;;8.55;2.33;;;24.30;99.90;;;;;;5070084;28;20112;-72
2022/08/04 13:04:41;;;;;;;6.43;2.30;;;24.20;99.90;;;;;;5022298;28;20037;-72
2022/08/04 13:07:12;;;;;;;5.80;1.80;;;24.30;99.90;;;;;;5072016;28;20054;-72
2022/08/04 13:09:39;;;;;;;6.45;2.20;;;24.20;99.90;;;;;;5052293;28;20126;-72
2022/08/04 13:12:12;;;;;;;6.50;1.90;;;24.20;99.90;;;;;;5054195;28;20511;-72
2022/08/04 13:14:43;;;;;;;4.45;1.70;;;24.30;99.90;;;;;;5071727;28;20578;-72
2022/08/04 13:17:09;;;;;;;4.05;1.80;;;24.40;99.90;;;;;;5036672;28;20073;-71
2022/08/04 13:19:36;;;;;;;3.60;1.50;;;24.40;99.90;;;;;;5071266;28;20056;-72
2022/08/04 13:22:02;;;;;;;3.58;1.60;;;24.40;99.90;;;;;;5039779;28;20064;-71
2022/08/04 13:24:29;;;;;;;6.38;1.42;;;24.40;99.90;;;;;;5053625;28;20033;-71
2022/08/04 13:26:56;;;;;;;3.55;1.40;;;24.40;99.90;;;;;;5028349;28;20124;-71
2022/08/04 13:29:29;;;;;;;3.95;1.58;;;24.50;99.90;;;;;;5031684;28;20045;-71
2022/08/04 13:31:55;;;;;;;2.60;1.40;;;24.50;99.90;;;;;;5037250;28;20047;-71
2022/08/04 13:34:21;;;;;;;5.40;1.50;;;24.60;99.90;;;;;;5052306;28;20048;-71